This is the latest recevied weather packets stored in our database for station/object HARMALA. If no packets are shown the sender has not sent any weather packets the latest 10 day(s).
| Time | Temp. | Humidity | Pressure | Rain* | Wind** | Luminosity | Snow |
|---|---|---|---|---|---|---|---|
| 1777561616 | 16.67° C | 45% | 1019.3 hPa | 0 mm | - | - | - |
| 1777560416 | 16.67° C | 45% | 1019.3 hPa | 0 mm | - | - | - |
| 1777554415 | 16.11° C | 45% | 1019.6 hPa | 0 mm | - | - | - |
| 1777550815 | 16.11° C | 45% | 1019.7 hPa | 0 mm | - | - | - |
| 1777547215 | 14.44° C | 50% | 1020.1 hPa | 0 mm | - | - | - |
| 1777546015 | 14.44° C | 52% | 1019.9 hPa | 0 mm | - | - | - |
| 1777544815 | 14.44° C | 52% | 1020.1 hPa | 0 mm | - | - | - |
| 1777543615 | 13.89° C | 53% | 1020.3 hPa | 0 mm | - | - | - |
| 1777541215 | 12.78° C | 57% | 1020.6 hPa | 0 mm | - | - | - |
| 1777540014 | 12.78° C | 56% | 1020.4 hPa | 0 mm | - | - | - |
| 1777537614 | 11.67° C | 60% | 1020.6 hPa | 0 mm | - | - | - |
| 1777536414 | 11.11° C | 63% | 1020.4 hPa | 0 mm | - | - | - |
| 1777534014 | 8.89° C | 71% | 1020.5 hPa | 0 mm | - | - | - |
| 1777532814 | 8.89° C | 72% | 1020.6 hPa | 0 mm | - | - | - |
| 1777530414 | 6.11° C | 84% | 1020.8 hPa | 0 mm | - | - | - |
| 1777529214 | 5.56° C | 85% | 1020.8 hPa | 0 mm | - | - | - |
| 1777528014 | 5° C | 87% | 1020.7 hPa | 0 mm | - | - | - |
| 1777526814 | 4.44° C | 88% | 1020.5 hPa | 0 mm | - | - | - |
| 1777525613 | 4.44° C | 89% | 1020.7 hPa | 0 mm | - | - | - |
| 1777524414 | 3.89° C | 90% | 1021.1 hPa | 0 mm | - | - | - |
| 1777523213 | 3.89° C | 90% | 1021.2 hPa | 0 mm | - | - | - |
| 1777522014 | 3.89° C | 90% | 1021.1 hPa | 0 mm | - | - | - |
| 1777520814 | 3.33° C | 90% | 1021 hPa | 0 mm | - | - | - |
| 1777519614 | 3.33° C | 89% | 1021.2 hPa | 0 mm | - | - | - |
| 1777518414 | 3.33° C | 89% | 1021.4 hPa | 0 mm | - | - | - |
* Rain latest hour (hover to see other rain measurements)
** Current wind speed in m/s (hover to see current wind gust speed)